Time;durP1;ratioP1;P1;durP2;ratioP2;P2;SDS_P1;SDS_P2;PMS_P1;PMS_P2;Temp;Humidity;BMP_temperature;BMP_pressure;BME280_temperature;BME280_humidity;BME280_pressure;Samples;Min_cycle;Max_cycle;Signal;HPM_P1;HPM_P2
2022/02/23 00:01:46;;;;;;;23.93;12.27;;;1.40;99.90;;;;;;4173049;28;20282;-68
2022/02/23 00:06:01;;;;;;;22.03;10.60;;;1.40;99.90;;;;;;4316489;23;20319;-55
2022/02/23 00:08:03;;;;;;;20.37;9.70;;;1.40;99.90;;;;;;4139696;28;20321;-48
2022/02/23 00:10:05;;;;;;;21.93;10.60;;;1.40;99.90;;;;;;4142423;28;20271;-63
2022/02/23 00:12:06;;;;;;;20.73;10.17;;;1.50;99.90;;;;;;4139919;28;20326;-58
2022/02/23 00:14:08;;;;;;;21.67;9.60;;;1.50;99.90;;;;;;4141979;28;20275;-62
2022/02/23 00:16:09;;;;;;;17.60;8.87;;;1.50;99.90;;;;;;4124559;28;20315;-65
2022/02/23 00:18:12;;;;;;;17.97;10.00;;;1.60;99.90;;;;;;4124673;28;20422;-57
2022/02/23 00:20:14;;;;;;;19.57;9.13;;;1.60;99.90;;;;;;4124045;28;20261;-58
2022/02/23 00:22:15;;;;;;;23.07;10.63;;;1.60;99.90;;;;;;4124228;28;20817;-55
2022/02/23 00:24:16;;;;;;;20.50;9.77;;;1.60;99.90;;;;;;4137864;28;20325;-50
2022/02/23 00:26:17;;;;;;;15.43;8.10;;;1.60;99.90;;;;;;4139564;28;20334;-59
2022/02/23 00:28:19;;;;;;;16.90;9.07;;;1.60;99.90;;;;;;4141083;28;20428;-62
2022/02/23 00:30:20;;;;;;;21.13;10.00;;;1.60;99.90;;;;;;4141555;28;20323;-63
2022/02/23 00:32:21;;;;;;;21.30;9.83;;;1.60;99.90;;;;;;4143605;28;20983;-56
2022/02/23 00:34:23;;;;;;;21.33;10.57;;;1.50;99.90;;;;;;4148203;28;20822;-65
2022/02/23 00:36:24;;;;;;;24.63;10.30;;;1.40;99.90;;;;;;4147530;28;20271;-56
2022/02/23 00:38:25;;;;;;;22.80;11.10;;;1.30;99.90;;;;;;4143809;28;20335;-57
2022/02/23 00:40:26;;;;;;;21.07;9.33;;;1.30;99.90;;;;;;4142023;28;20341;-64
2022/02/23 00:42:28;;;;;;;22.90;9.53;;;1.20;99.90;;;;;;4136021;28;20338;-58
2022/02/23 00:44:29;;;;;;;19.47;9.50;;;1.10;99.90;;;;;;4137008;28;20784;-61
2022/02/23 00:46:30;;;;;;;19.40;9.50;;;1.10;99.90;;;;;;4129390;28;20280;-59
2022/02/23 00:48:31;;;;;;;16.07;8.87;;;1.10;99.90;;;;;;4139734;28;20322;-51
2022/02/23 00:50:33;;;;;;;21.80;9.40;;;1.10;99.90;;;;;;4145159;28;20263;-57
2022/02/23 00:52:34;;;;;;;22.33;10.37;;;1.10;99.90;;;;;;4128076;28;20310;-63
2022/02/23 00:54:36;;;;;;;24.57;10.83;;;1.10;99.90;;;;;;4128483;28;20806;-60
2022/02/23 00:56:37;;;;;;;23.20;10.87;;;1.00;99.90;;;;;;4128158;28;20361;-60
2022/02/23 00:58:38;;;;;;;24.50;11.17;;;1.00;99.90;;;;;;4144238;28;20330;-51
2022/02/23 01:00:39;;;;;;;23.93;10.97;;;0.80;99.90;;;;;;4144052;28;20267;-68
2022/02/23 01:02:41;;;;;;;23.83;11.47;;;0.80;99.90;;;;;;4149088;28;20271;-53
2022/02/23 01:04:42;;;;;;;30.20;12.43;;;0.80;99.90;;;;;;4151743;28;20322;-66
2022/02/23 01:06:43;;;;;;;27.60;12.57;;;0.70;99.90;;;;;;4150409;28;20795;-50
2022/02/23 01:08:45;;;;;;;29.37;12.73;;;0.70;99.90;;;;;;4151155;28;20271;-64
2022/02/23 01:10:46;;;;;;;26.40;11.67;;;0.60;99.90;;;;;;4148680;28;20264;-68
2022/02/23 01:12:47;;;;;;;23.83;12.10;;;0.50;99.90;;;;;;4128088;28;20288;-64
2022/02/23 01:14:49;;;;;;;24.33;11.93;;;0.40;99.90;;;;;;4145256;28;20763;-50
2022/02/23 01:16:50;;;;;;;24.57;11.13;;;0.40;99.90;;;;;;4146292;28;21152;-66
2022/02/23 01:18:51;;;;;;;24.13;10.83;;;0.40;99.90;;;;;;4146929;28;20947;-52
2022/02/23 01:20:52;;;;;;;26.90;12.00;;;0.40;99.90;;;;;;4143334;28;20802;-60
2022/02/23 01:22:56;;;;;;;26.53;13.00;;;0.40;99.90;;;;;;4144979;28;20313;-45
2022/02/23 01:24:58;;;;;;;29.17;12.20;;;0.40;99.90;;;;;;4148347;28;20274;-60
2022/02/23 01:26:59;;;;;;;28.63;11.93;;;0.40;99.90;;;;;;4150180;28;20299;-48
2022/02/23 01:29:04;;;;;;;28.83;12.17;;;0.40;99.90;;;;;;4147147;28;20259;-52
2022/02/23 01:31:05;;;;;;;23.50;11.77;;;0.40;99.90;;;;;;4149348;28;20279;-59
2022/02/23 01:33:06;;;;;;;25.43;11.53;;;0.40;99.90;;;;;;4148777;28;20267;-45
2022/02/23 01:35:08;;;;;;;26.10;11.63;;;0.40;99.90;;;;;;4150046;28;20839;-56
2022/02/23 01:37:09;;;;;;;25.80;11.73;;;0.40;99.90;;;;;;4146539;28;20263;-56
2022/02/23 01:39:10;;;;;;;23.93;12.27;;;0.40;99.90;;;;;;4147479;28;20994;-61
2022/02/23 01:41:13;;;;;;;21.77;11.30;;;0.40;99.90;;;;;;4148732;28;20306;-48
2022/02/23 01:43:15;;;;;;;27.67;12.40;;;0.40;99.90;;;;;;4151799;28;20290;-60
2022/02/23 01:45:17;;;;;;;30.17;11.97;;;0.40;99.90;;;;;;4150558;28;20248;-59
2022/02/23 01:47:18;;;;;;;27.27;12.77;;;0.40;99.90;;;;;;4149986;28;20291;-60
2022/02/23 01:49:19;;;;;;;29.10;11.87;;;0.40;99.90;;;;;;4152185;28;21236;-41
2022/02/23 01:51:20;;;;;;;29.27;12.47;;;0.40;99.90;;;;;;4148439;28;20294;-58
2022/02/23 01:53:22;;;;;;;25.03;12.23;;;0.40;99.90;;;;;;4145942;28;20306;-57
2022/02/23 01:55:23;;;;;;;25.73;11.80;;;0.40;99.90;;;;;;4145704;28;20283;-60
2022/02/23 01:57:24;;;;;;;25.37;11.10;;;0.40;99.90;;;;;;4148533;28;20337;-57
2022/02/23 01:59:26;;;;;;;28.80;11.37;;;0.40;99.90;;;;;;4144819;28;20268;-56
2022/02/23 02:01:27;;;;;;;26.20;12.33;;;0.50;99.90;;;;;;4143045;28;21250;-43
2022/02/23 02:03:28;;;;;;;23.87;12.00;;;0.50;99.90;;;;;;4143000;28;20268;-44
2022/02/23 02:05:29;;;;;;;22.97;11.37;;;0.50;99.90;;;;;;4146783;28;20667;-49
2022/02/23 02:07:30;;;;;;;25.53;12.40;;;0.50;99.90;;;;;;4148084;28;20295;-48
2022/02/23 02:09:32;;;;;;;24.10;11.60;;;0.50;99.90;;;;;;4146774;28;20275;-46
2022/02/23 02:11:33;;;;;;;24.90;11.80;;;0.60;99.90;;;;;;4146486;28;20381;-64
2022/02/23 02:13:34;;;;;;;27.40;11.40;;;0.60;99.90;;;;;;4147729;28;20708;-68
2022/02/23 02:15:35;;;;;;;32.20;15.37;;;0.70;99.90;;;;;;4149768;28;20321;-66
2022/02/23 02:17:36;;;;;;;34.73;15.67;;;0.70;99.90;;;;;;4127037;28;20268;-51
2022/02/23 02:19:38;;;;;;;31.60;13.43;;;0.60;99.90;;;;;;4141952;28;21053;-55
2022/02/23 02:21:56;;;;;;;29.43;14.00;;;0.60;99.90;;;;;;4142989;28;20271;-57
2022/02/23 02:23:57;;;;;;;26.00;12.33;;;0.50;99.90;;;;;;4142399;28;20330;-64
2022/02/23 02:25:58;;;;;;;24.87;12.77;;;0.50;99.90;;;;;;4144113;28;20271;-52
2022/02/23 02:27:59;;;;;;;30.80;12.77;;;0.50;99.90;;;;;;4142233;28;20683;-65
2022/02/23 02:30:00;;;;;;;32.00;13.73;;;0.50;99.90;;;;;;4145246;28;20341;-52
2022/02/23 02:32:02;;;;;;;28.23;13.57;;;0.50;99.90;;;;;;4141709;28;20298;-66
2022/02/23 02:34:04;;;;;;;32.10;13.80;;;0.60;99.90;;;;;;4142566;28;20398;-67
2022/02/23 02:36:05;;;;;;;33.63;15.23;;;0.60;99.90;;;;;;4142909;28;20275;-50
2022/02/23 02:38:07;;;;;;;36.17;14.23;;;0.60;99.90;;;;;;4144699;28;20271;-67
2022/02/23 02:40:08;;;;;;;29.13;12.50;;;0.50;99.90;;;;;;4141734;28;20331;-65
2022/02/23 02:42:10;;;;;;;22.40;11.17;;;0.50;99.90;;;;;;4181299;22;20318;-58
2022/02/23 02:44:12;;;;;;;25.10;11.33;;;0.50;99.90;;;;;;4166317;28;20323;-46
2022/02/23 02:46:13;;;;;;;26.83;11.83;;;0.50;99.90;;;;;;4169125;28;20271;-66
2022/02/23 02:48:15;;;;;;;28.47;11.27;;;0.40;99.90;;;;;;4174029;28;20286;-52
2022/02/23 02:50:16;;;;;;;25.03;11.67;;;0.40;99.90;;;;;;4150753;28;20279;-44
2022/02/23 02:52:18;;;;;;;29.00;11.47;;;0.40;99.90;;;;;;4158055;28;20271;-67
2022/02/23 02:54:19;;;;;;;18.20;9.83;;;0.30;99.90;;;;;;4157824;28;20275;-48
2022/02/23 02:56:21;;;;;;;23.33;10.27;;;0.40;99.90;;;;;;4157909;28;20287;-65
2022/02/23 02:58:22;;;;;;;25.33;10.80;;;0.40;99.90;;;;;;4159588;28;20328;-66
2022/02/23 03:00:24;;;;;;;24.40;10.97;;;0.40;99.90;;;;;;4174937;28;20258;-58
2022/02/23 03:02:25;;;;;;;23.47;10.77;;;0.40;99.90;;;;;;4177905;28;21180;-51
2022/02/23 03:04:26;;;;;;;24.07;10.10;;;0.40;99.90;;;;;;4157765;28;20337;-49
2022/02/23 03:06:28;;;;;;;22.90;10.27;;;0.50;99.90;;;;;;4157765;28;20393;-66
2022/02/23 03:08:29;;;;;;;26.23;10.90;;;0.60;99.90;;;;;;4178543;28;20305;-44
2022/02/23 03:10:30;;;;;;;23.17;10.50;;;0.70;99.90;;;;;;4176145;28;20266;-71
2022/02/23 03:12:31;;;;;;;28.83;12.13;;;0.70;99.90;;;;;;4182440;28;20262;-62
2022/02/23 03:14:33;;;;;;;23.97;11.53;;;0.80;99.90;;;;;;4179673;28;20277;-68
2022/02/23 03:16:34;;;;;;;25.00;11.77;;;0.80;99.90;;;;;;4180541;28;20277;-46
2022/02/23 03:18:36;;;;;;;24.23;11.83;;;0.80;99.90;;;;;;4181602;28;20300;-58
2022/02/23 03:20:37;;;;;;;23.53;11.67;;;0.90;99.90;;;;;;4177713;28;20327;-48
2022/02/23 03:22:38;;;;;;;30.17;11.23;;;0.90;99.90;;;;;;4158321;28;20739;-63
2022/02/23 03:24:39;;;;;;;24.03;11.03;;;0.90;99.90;;;;;;4169612;28;21726;-85
2022/02/23 03:26:40;;;;;;;26.83;10.90;;;0.80;99.90;;;;;;4166818;28;20262;-53
2022/02/23 03:28:42;;;;;;;24.83;10.53;;;0.70;99.90;;;;;;4173007;28;20302;-55
2022/02/23 03:30:43;;;;;;;25.53;11.33;;;0.60;99.90;;;;;;4179723;28;20274;-67
2022/02/23 03:32:44;;;;;;;25.63;10.67;;;0.60;99.90;;;;;;4176293;28;20660;-65
2022/02/23 03:34:45;;;;;;;25.10;12.07;;;0.50;99.90;;;;;;4166355;28;20340;-58
2022/02/23 03:36:46;;;;;;;26.13;10.97;;;0.40;99.90;;;;;;4157654;28;20839;-55
2022/02/23 03:38:48;;;;;;;29.73;12.13;;;0.40;99.90;;;;;;4159503;28;21176;-59
2022/02/23 03:40:49;;;;;;;23.33;11.40;;;0.30;99.90;;;;;;4162037;28;20778;-66
2022/02/23 03:42:50;;;;;;;22.63;12.17;;;0.40;99.90;;;;;;4162330;28;20271;-66
2022/02/23 03:44:51;;;;;;;23.70;10.63;;;0.40;99.90;;;;;;4266902;22;20298;-55
2022/02/23 03:46:53;;;;;;;24.37;10.67;;;0.40;99.90;;;;;;4157820;28;20333;-43
2022/02/23 03:48:54;;;;;;;26.00;11.20;;;0.40;99.90;;;;;;4160155;28;20348;-54
2022/02/23 03:50:56;;;;;;;22.37;11.67;;;0.40;99.90;;;;;;4158296;28;20270;-47
2022/02/23 03:52:57;;;;;;;25.13;10.90;;;0.30;99.90;;;;;;4164926;28;20313;-58
2022/02/23 03:54:58;;;;;;;26.50;11.67;;;0.30;99.90;;;;;;4162957;28;20258;-50
2022/02/23 03:56:59;;;;;;;21.57;10.77;;;0.30;99.90;;;;;;4158572;28;20267;-62
2022/02/23 03:59:00;;;;;;;25.67;10.83;;;0.20;99.90;;;;;;4142994;28;20279;-62
2022/02/23 04:01:02;;;;;;;30.13;13.97;;;0.20;99.90;;;;;;4160329;28;20401;-55
2022/02/23 04:03:03;;;;;;;25.77;11.33;;;0.20;99.90;;;;;;4161190;28;20263;-57
2022/02/23 04:05:06;;;;;;;28.07;12.20;;;0.20;99.90;;;;;;4316131;22;21026;-67
2022/02/23 04:07:07;;;;;;;31.73;12.00;;;0.10;99.90;;;;;;4142424;28;20679;-64
2022/02/23 04:09:10;;;;;;;30.67;12.50;;;0.00;99.90;;;;;;4144574;28;21013;-54
2022/02/23 04:11:11;;;;;;;25.93;13.60;;;-0.10;99.90;;;;;;4145429;28;20271;-50
2022/02/23 04:13:12;;;;;;;37.83;14.00;;;-0.10;99.90;;;;;;4145671;28;20271;-53
2022/02/23 04:15:16;;;;;;;45.47;16.17;;;-0.20;99.90;;;;;;4154628;28;20271;-50
2022/02/23 04:17:17;;;;;;;42.67;16.97;;;-0.30;99.90;;;;;;4152725;28;20259;-55
2022/02/23 04:19:18;;;;;;;42.30;17.10;;;-0.30;99.90;;;;;;4158459;28;20328;-54
2022/02/23 04:21:20;;;;;;;36.40;16.33;;;-0.40;99.90;;;;;;4146165;28;20332;-61
2022/02/23 04:23:22;;;;;;;39.87;17.00;;;-0.50;99.90;;;;;;4144853;28;20283;-59
2022/02/23 04:25:23;;;;;;;37.43;16.30;;;-0.50;99.90;;;;;;4157764;28;20263;-51
2022/02/23 04:27:24;;;;;;;34.27;15.00;;;-0.50;99.90;;;;;;4158788;28;20400;-73
2022/02/23 04:29:26;;;;;;;42.70;16.50;;;-0.50;99.90;;;;;;4159067;28;20321;-56
2022/02/23 04:31:28;;;;;;;34.63;13.50;;;-0.60;99.90;;;;;;4155043;28;20349;-65
2022/02/23 04:33:30;;;;;;;27.83;13.13;;;-0.50;99.90;;;;;;4159026;28;20337;-61
2022/02/23 04:35:31;;;;;;;31.53;13.27;;;-0.50;99.90;;;;;;4156963;28;20387;-54
2022/02/23 04:37:32;;;;;;;34.20;11.90;;;-0.50;99.90;;;;;;4153878;28;20283;-54
2022/02/23 04:39:35;;;;;;;26.33;11.83;;;-0.40;99.90;;;;;;4145844;28;20279;-65
2022/02/23 04:41:36;;;;;;;29.63;13.57;;;-0.30;99.90;;;;;;4146022;28;20331;-60
2022/02/23 04:43:37;;;;;;;30.83;13.27;;;-0.30;99.90;;;;;;4148579;28;21249;-65
2022/02/23 04:45:39;;;;;;;24.97;11.87;;;-0.30;99.90;;;;;;4161935;28;21079;-69
2022/02/23 04:47:40;;;;;;;31.80;11.53;;;-0.20;99.90;;;;;;4146390;28;20337;-61
2022/02/23 04:49:41;;;;;;;25.27;10.33;;;-0.10;99.90;;;;;;4143837;28;20271;-57
2022/02/23 04:51:42;;;;;;;29.87;12.13;;;-0.10;99.90;;;;;;4146446;28;20767;-52
2022/02/23 04:53:44;;;;;;;29.43;12.40;;;0.00;99.90;;;;;;4142053;28;20306;-57
2022/02/23 04:55:45;;;;;;;30.90;12.93;;;0.10;99.90;;;;;;4145017;28;20295;-57
2022/02/23 04:57:46;;;;;;;29.80;13.57;;;0.10;99.90;;;;;;4148248;28;20817;-53
2022/02/23 04:59:48;;;;;;;28.57;13.47;;;0.10;99.90;;;;;;4298571;22;20265;-51
2022/02/23 05:01:51;;;;;;;31.80;13.73;;;0.20;99.90;;;;;;4151693;28;20279;-54
2022/02/23 05:03:52;;;;;;;29.37;13.40;;;0.20;99.90;;;;;;4145499;28;20337;-54
2022/02/23 05:05:53;;;;;;;30.67;13.87;;;0.30;99.90;;;;;;4145967;28;20378;-59
2022/02/23 05:07:54;;;;;;;33.03;14.00;;;0.30;99.90;;;;;;4162457;28;20356;-58
2022/02/23 05:09:56;;;;;;;35.37;14.73;;;0.40;99.90;;;;;;4159382;28;20278;-44
2022/02/23 05:11:57;;;;;;;34.03;14.43;;;0.40;99.90;;;;;;4156871;28;20313;-66
2022/02/23 05:13:59;;;;;;;35.60;14.47;;;0.50;99.90;;;;;;4143136;28;20279;-65
2022/02/23 05:16:03;;;;;;;32.20;14.93;;;0.60;99.90;;;;;;4141812;28;20755;-66
2022/02/23 05:18:07;;;;;;;37.27;13.90;;;0.60;99.90;;;;;;4143097;28;20312;-62
2022/02/23 05:20:09;;;;;;;35.60;15.27;;;0.70;99.90;;;;;;4143455;28;20369;-54
2022/02/23 05:22:11;;;;;;;32.60;14.27;;;0.70;99.90;;;;;;4143042;28;20280;-59
2022/02/23 05:24:12;;;;;;;36.33;15.10;;;0.70;99.90;;;;;;4144078;28;20255;-78
2022/02/23 05:26:14;;;;;;;37.23;14.67;;;0.90;99.90;;;;;;4143325;28;20700;-63
2022/02/23 05:28:15;;;;;;;35.27;15.20;;;0.80;99.90;;;;;;4140985;28;20679;-69
2022/02/23 05:30:17;;;;;;;37.37;17.77;;;0.90;99.90;;;;;;4140063;28;20279;-50
2022/02/23 05:32:18;;;;;;;44.03;18.10;;;0.90;99.90;;;;;;4143855;28;20334;-54
2022/02/23 05:34:21;;;;;;;47.93;21.23;;;0.90;99.90;;;;;;4143035;28;20975;-82
2022/02/23 05:36:22;;;;;;;45.50;20.67;;;0.90;99.90;;;;;;4149963;28;20340;-69
2022/02/23 05:38:23;;;;;;;43.33;20.20;;;0.90;99.90;;;;;;4143117;28;20837;-57
2022/02/23 05:40:25;;;;;;;39.17;20.27;;;1.00;99.90;;;;;;4315623;22;20924;-66
2022/02/23 05:42:26;;;;;;;37.80;17.70;;;1.00;99.90;;;;;;4153381;28;20325;-65
2022/02/23 05:46:33;;;;;;;42.60;13.30;;;1.00;99.90;;;;;;4142582;28;20728;-66
2022/02/23 05:48:34;;;;;;;35.73;15.47;;;1.10;99.90;;;;;;4141694;28;20308;-46
2022/02/23 05:50:35;;;;;;;32.67;12.97;;;1.10;99.90;;;;;;4143329;28;20739;-69
2022/02/23 05:52:36;;;;;;;31.57;15.10;;;1.10;99.90;;;;;;4141245;28;20259;-57
2022/02/23 05:54:37;;;;;;;29.97;12.33;;;1.10;99.90;;;;;;4143500;28;20302;-70
2022/02/23 05:56:40;;;;;;;25.53;12.33;;;1.10;99.90;;;;;;4142319;28;20294;-88
2022/02/23 05:58:41;;;;;;;29.37;12.93;;;1.20;99.90;;;;;;4119566;28;20268;-64
2022/02/23 06:00:42;;;;;;;36.80;14.03;;;1.20;99.90;;;;;;4144000;28;20314;-79
2022/02/23 06:02:43;;;;;;;30.17;14.33;;;1.20;99.90;;;;;;4145467;28;20263;-75
2022/02/23 06:04:44;;;;;;;32.47;13.50;;;1.20;99.90;;;;;;4146497;28;20291;-44
2022/02/23 06:06:45;;;;;;;31.10;13.10;;;1.20;99.90;;;;;;4133101;28;20275;-65
2022/02/23 06:08:46;;;;;;;25.23;11.43;;;1.20;99.90;;;;;;4128569;28;20345;-63
2022/02/23 06:10:47;;;;;;;28.07;12.27;;;1.20;99.90;;;;;;4128507;28;20268;-47
2022/02/23 06:12:48;;;;;;;26.53;12.67;;;1.10;99.90;;;;;;4130289;28;20248;-82
2022/02/23 06:17:39;;;;;;;36.30;12.70;;;1.20;99.90;;;;;;4184861;23;20414;-64
2022/02/23 06:19:40;;;;;;;29.57;12.47;;;1.30;99.90;;;;;;4175082;28;20278;-59
2022/02/23 06:21:44;;;;;;;25.27;12.37;;;1.40;99.90;;;;;;4176194;28;20271;-48
2022/02/23 06:23:46;;;;;;;30.27;13.70;;;1.40;99.90;;;;;;4175681;28;20645;-73
2022/02/23 06:25:47;;;;;;;27.70;11.90;;;1.50;99.90;;;;;;4176564;28;20274;-61
2022/02/23 06:27:48;;;;;;;27.30;11.97;;;1.60;99.90;;;;;;4175575;28;20270;-69
2022/02/23 06:29:49;;;;;;;28.33;13.93;;;1.70;99.90;;;;;;4174129;28;20506;-66
2022/02/23 06:32:05;;;;;;;38.33;18.90;;;1.70;99.90;;;;;;4173963;28;20741;-55
2022/02/23 06:34:08;;;;;;;45.63;22.67;;;1.80;99.90;;;;;;4175031;28;20763;-45
2022/02/23 06:36:10;;;;;;;41.57;21.43;;;1.80;99.90;;;;;;4174847;28;20848;-56
2022/02/23 06:38:12;;;;;;;51.67;29.50;;;1.80;99.90;;;;;;4175397;28;20270;-44
2022/02/23 06:40:13;;;;;;;50.33;20.40;;;1.90;99.90;;;;;;4174462;28;20588;-54
2022/02/23 06:42:15;;;;;;;51.93;18.93;;;1.90;99.90;;;;;;4174393;28;20724;-48
2022/02/23 06:44:21;;;;;;;51.23;18.90;;;1.90;99.90;;;;;;4174172;28;20323;-90
2022/02/23 06:46:22;;;;;;;43.60;19.07;;;2.00;99.90;;;;;;4173659;28;20359;-54
2022/02/23 06:48:23;;;;;;;49.23;21.03;;;2.00;99.90;;;;;;4174143;28;20290;-61
2022/02/23 06:50:25;;;;;;;39.97;18.50;;;2.00;99.90;;;;;;4173551;28;20266;-49
2022/02/23 06:52:30;;;;;;;45.83;18.93;;;2.00;99.90;;;;;;4177209;28;20856;-51
2022/02/23 06:54:32;;;;;;;43.13;18.90;;;2.10;99.90;;;;;;4156014;28;20333;-49
2022/02/23 06:56:33;;;;;;;52.80;19.70;;;2.10;99.90;;;;;;4174630;28;20290;-63
2022/02/23 06:58:46;;;;;;;44.23;19.97;;;2.10;99.90;;;;;;4172754;28;20939;-63
2022/02/23 07:00:47;;;;;;;39.97;19.40;;;2.10;99.90;;;;;;4174542;28;20657;-81
2022/02/23 07:02:49;;;;;;;47.80;19.73;;;2.20;99.90;;;;;;4174082;28;20274;-56
2022/02/23 07:04:50;;;;;;;48.87;19.30;;;2.30;99.90;;;;;;4174796;28;20776;-54
2022/02/23 07:06:51;;;;;;;41.83;18.17;;;2.30;99.90;;;;;;4173598;28;20666;-59
2022/02/23 07:08:52;;;;;;;39.90;19.23;;;2.40;99.90;;;;;;4156479;28;20295;-64
2022/02/23 07:10:54;;;;;;;41.70;19.70;;;2.40;99.90;;;;;;4155580;28;20333;-55
2022/02/23 07:12:56;;;;;;;48.27;19.57;;;2.40;99.90;;;;;;4155728;28;20321;-52
2022/02/23 07:14:58;;;;;;;45.23;20.07;;;2.40;99.90;;;;;;4155621;28;20279;-57
2022/02/23 07:16:59;;;;;;;49.90;18.10;;;2.40;99.90;;;;;;4173699;28;20693;-50
2022/02/23 07:19:00;;;;;;;40.97;16.43;;;2.50;99.90;;;;;;4174077;28;20274;-45
2022/02/23 07:21:02;;;;;;;40.57;15.73;;;2.50;99.90;;;;;;4172936;28;20266;-63
2022/02/23 07:23:04;;;;;;;54.43;19.27;;;2.70;99.90;;;;;;4173534;28;20278;-57
2022/02/23 07:25:06;;;;;;;41.13;19.10;;;2.60;99.90;;;;;;4171797;28;20875;-54
2022/02/23 07:27:12;;;;;;;36.77;15.87;;;2.60;99.90;;;;;;4174536;28;20355;-50
2022/02/23 07:29:13;;;;;;;38.13;16.23;;;2.70;99.90;;;;;;4172899;28;20290;-60
2022/02/23 07:31:18;;;;;;;40.17;17.40;;;2.70;99.90;;;;;;4174720;28;20270;-62
2022/02/23 07:33:19;;;;;;;38.77;16.23;;;2.80;99.90;;;;;;4173092;28;20320;-58
2022/02/23 07:35:21;;;;;;;33.97;16.47;;;2.90;99.90;;;;;;4174441;28;20669;-53
2022/02/23 07:37:22;;;;;;;31.97;15.27;;;3.00;99.90;;;;;;4174188;28;20525;-52
2022/02/23 07:39:23;;;;;;;37.70;16.43;;;3.30;99.90;;;;;;4174907;28;20278;-62
2022/02/23 07:41:25;;;;;;;42.40;16.93;;;3.50;99.90;;;;;;4173460;28;20320;-49
2022/02/23 07:43:26;;;;;;;35.77;14.30;;;3.70;99.90;;;;;;4174557;28;20267;-54
2022/02/23 07:45:27;;;;;;;37.63;16.20;;;3.90;99.90;;;;;;4172262;28;20254;-53
2022/02/23 07:47:29;;;;;;;30.53;15.13;;;4.00;99.90;;;;;;4171977;28;20277;-73
2022/02/23 07:49:30;;;;;;;39.67;14.50;;;4.00;99.90;;;;;;4159039;28;20299;-59
2022/02/23 07:51:31;;;;;;;39.83;15.90;;;4.20;99.90;;;;;;4143550;28;20283;-50
2022/02/23 07:53:33;;;;;;;35.23;15.80;;;4.20;99.90;;;;;;4159151;28;21408;-64
2022/02/23 07:55:36;;;;;;;39.07;16.87;;;4.20;99.90;;;;;;4212973;23;20274;-50
2022/02/23 07:57:37;;;;;;;39.40;16.30;;;4.20;99.90;;;;;;4173795;28;20835;-81
2022/02/23 07:59:38;;;;;;;40.90;18.63;;;4.20;99.90;;;;;;4172156;28;20319;-49
2022/02/23 08:01:41;;;;;;;62.93;22.30;;;4.20;99.90;;;;;;4173691;28;20277;-57
2022/02/23 08:03:42;;;;;;;73.77;25.77;;;4.20;99.90;;;;;;4172446;28;20269;-88
2022/02/23 08:05:43;;;;;;;80.07;25.17;;;4.20;99.90;;;;;;4167444;28;20340;-65
2022/02/23 08:07:44;;;;;;;74.43;23.23;;;4.50;99.90;;;;;;4173061;28;20274;-51
2022/02/23 08:09:46;;;;;;;56.53;19.27;;;4.80;99.90;;;;;;4173975;28;20651;-52
2022/02/23 08:11:47;;;;;;;51.60;17.67;;;5.00;99.90;;;;;;4173745;28;20812;-76
2022/02/23 08:13:49;;;;;;;35.17;16.13;;;5.30;99.90;;;;;;4175983;28;20811;-69
2022/02/23 08:20:32;;;;;;;51.15;19.02;;;5.80;99.90;;;;;;4174546;28;20300;-73
2022/02/23 08:22:33;;;;;;;35.87;15.90;;;6.00;99.90;;;;;;4175291;28;20098;-82
2022/02/23 08:24:37;;;;;;;38.33;16.23;;;6.20;99.90;;;;;;4181231;28;20680;-58
2022/02/23 08:26:42;;;;;;;33.80;14.67;;;6.20;99.90;;;;;;4177114;28;20696;-68
2022/02/23 08:28:44;;;;;;;25.57;13.30;;;6.40;99.90;;;;;;4173458;28;20305;-60
2022/02/23 08:30:48;;;;;;;30.33;14.60;;;6.80;99.90;;;;;;4175885;28;20284;-53
2022/02/23 08:32:49;;;;;;;30.53;14.73;;;7.10;99.90;;;;;;4177867;28;20327;-56
2022/02/23 08:34:54;;;;;;;31.13;13.47;;;7.40;99.90;;;;;;4177944;28;20037;-64
2022/02/23 08:36:55;;;;;;;24.63;13.90;;;7.50;99.90;;;;;;4174048;28;20066;-73
2022/02/23 08:38:57;;;;;;;27.93;11.93;;;7.60;99.90;;;;;;4174485;28;20151;-46
2022/02/23 08:40:58;;;;;;;24.23;12.40;;;7.70;99.90;;;;;;4174799;28;20505;-67
2022/02/23 08:42:59;;;;;;;30.73;12.20;;;7.80;99.90;;;;;;4173699;28;20424;-66
2022/02/23 08:45:00;;;;;;;24.40;11.80;;;8.00;99.90;;;;;;4411455;22;20142;-62
2022/02/23 08:47:02;;;;;;;22.83;11.07;;;7.90;99.90;;;;;;4173457;28;20033;-58
2022/02/23 08:49:04;;;;;;;18.27;9.73;;;7.80;99.90;;;;;;4172281;28;20396;-42
2022/02/23 08:51:06;;;;;;;20.17;9.53;;;7.90;99.90;;;;;;4172711;28;20082;-68
2022/02/23 08:53:07;;;;;;;19.53;9.53;;;7.90;99.90;;;;;;4174545;28;20025;-71
2022/02/23 08:55:09;;;;;;;24.10;11.37;;;7.90;99.90;;;;;;4177418;28;20174;-78
2022/02/23 08:57:10;;;;;;;29.13;12.30;;;7.90;99.90;;;;;;4176474;28;20021;-60
2022/02/23 08:59:12;;;;;;;25.53;11.43;;;7.80;99.90;;;;;;4177436;28;20025;-69
2022/02/23 09:01:13;;;;;;;30.80;13.87;;;7.80;99.90;;;;;;4162169;28;20045;-65
2022/02/23 09:03:14;;;;;;;27.63;11.73;;;7.50;99.90;;;;;;4161365;28;20869;-60
2022/02/23 09:05:15;;;;;;;32.73;12.93;;;7.20;99.90;;;;;;4158583;28;20111;-70
2022/02/23 09:07:16;;;;;;;36.60;15.73;;;7.00;99.90;;;;;;4160707;28;20113;-53
2022/02/23 09:09:18;;;;;;;36.50;16.57;;;6.90;99.90;;;;;;4169395;28;20045;-60
2022/02/23 09:11:19;;;;;;;33.37;17.27;;;6.80;99.90;;;;;;4175598;28;20041;-89
2022/02/23 09:13:20;;;;;;;36.90;18.80;;;6.80;99.90;;;;;;4177883;28;20078;-54
2022/02/23 09:15:21;;;;;;;36.70;17.13;;;7.00;99.90;;;;;;4176483;28;20091;-65
2022/02/23 09:17:22;;;;;;;47.40;16.73;;;7.10;99.90;;;;;;4179069;28;20129;-85
2022/02/23 09:21:34;;;;;;;31.27;14.77;;;7.30;99.90;;;;;;4451705;22;19970;-61
2022/02/23 09:23:36;;;;;;;34.80;12.93;;;7.40;99.90;;;;;;4174699;28;20075;-58
2022/02/23 09:25:37;;;;;;;31.40;13.80;;;7.50;99.90;;;;;;4175842;28;20028;-62
2022/02/23 09:27:39;;;;;;;25.70;11.90;;;7.70;99.90;;;;;;4175350;28;20094;-46
2022/02/23 09:29:40;;;;;;;21.77;12.23;;;7.70;99.90;;;;;;4177561;28;20063;-46
2022/02/23 09:31:41;;;;;;;30.33;12.00;;;7.60;99.90;;;;;;4174303;28;20025;-54
2022/02/23 09:33:42;;;;;;;22.90;10.83;;;7.50;99.90;;;;;;4164213;28;20037;-49
2022/02/23 09:35:49;;;;;;;25.53;10.63;;;7.40;99.90;;;;;;4165876;28;20033;-79
2022/02/23 09:37:50;;;;;;;31.57;10.80;;;7.30;99.90;;;;;;4174344;28;20033;-63
2022/02/23 09:39:51;;;;;;;23.57;11.53;;;7.10;99.90;;;;;;4178285;28;20036;-62
2022/02/23 09:41:56;;;;;;;23.67;10.43;;;7.00;99.90;;;;;;4174658;28;20098;-72
2022/02/23 09:43:58;;;;;;;19.90;9.93;;;7.00;99.90;;;;;;4176530;28;20033;-76
2022/02/23 09:45:59;;;;;;;17.30;9.23;;;6.90;99.90;;;;;;4176046;28;20032;-81
2022/02/23 09:48:01;;;;;;;21.57;9.43;;;6.90;99.90;;;;;;4176385;28;20098;-67
2022/02/23 09:52:13;;;;;;;19.33;10.07;;;6.50;99.90;;;;;;4219639;23;20731;-65
2022/02/23 09:54:14;;;;;;;26.27;11.17;;;6.40;99.90;;;;;;4176745;28;20091;-54
2022/02/23 09:56:20;;;;;;;26.27;11.07;;;6.40;99.90;;;;;;4175609;28;20411;-54
2022/02/23 09:58:21;;;;;;;18.83;8.83;;;6.50;99.90;;;;;;4173143;28;20547;-44
2022/02/23 10:00:22;;;;;;;24.40;9.13;;;6.50;99.90;;;;;;4176164;28;20033;-48
2022/02/23 10:02:24;;;;;;;16.07;4.50;;;6.60;99.90;;;;;;4174562;28;20032;-57
2022/02/23 10:04:25;;;;;;;11.57;4.10;;;6.70;99.90;;;;;;4174804;28;20110;-65
2022/02/23 10:06:29;;;;;;;10.53;4.40;;;6.80;99.90;;;;;;4174534;28;20441;-56
2022/02/23 10:08:32;;;;;;;12.00;3.47;;;6.90;99.90;;;;;;4176901;28;20465;-53
2022/02/23 10:10:36;;;;;;;11.60;3.43;;;7.00;99.90;;;;;;4176101;28;20049;-65
2022/02/23 10:12:38;;;;;;;5.07;2.67;;;7.10;99.70;;;;;;4176740;28;20446;-59
2022/02/23 10:14:40;;;;;;;9.33;4.37;;;7.20;99.40;;;;;;4173805;28;20408;-53
2022/02/23 10:19:17;;;;;;;26.77;5.17;;;7.40;97.80;;;;;;4179169;23;20057;-76
2022/02/23 10:21:19;;;;;;;38.43;8.17;;;7.40;96.80;;;;;;4162834;28;20072;-72
2022/02/23 10:23:23;;;;;;;12.83;5.67;;;7.50;97.50;;;;;;4159632;28;20503;-57
2022/02/23 10:25:27;;;;;;;18.33;6.67;;;7.60;96.50;;;;;;4175935;28;20040;-63
2022/02/23 10:27:37;;;;;;;22.87;6.47;;;7.80;96.50;;;;;;4176253;28;20136;-66
2022/02/23 10:29:56;;;;;;;14.73;5.68;;;7.80;94.00;;;;;;4177615;28;20531;-64
2022/02/23 10:31:58;;;;;;;16.67;5.27;;;7.80;92.50;;;;;;4177506;28;20040;-64
2022/02/23 10:34:17;;;;;;;14.53;4.47;;;7.90;93.30;;;;;;4159231;28;20386;-73
2022/02/23 10:38:31;;;;;;;13.17;2.80;;;7.90;91.30;;;;;;4138816;28;20068;-58
2022/02/23 10:40:41;;;;;;;9.93;1.63;;;8.00;87.70;;;;;;4133253;28;20076;-59
2022/02/23 10:42:42;;;;;;;5.65;1.45;;;8.00;87.50;;;;;;4126237;28;20069;-73
2022/02/23 10:44:45;;;;;;;11.17;2.03;;;8.00;87.00;;;;;;4145259;28;20038;-58
2022/02/23 10:46:47;;;;;;;7.10;1.60;;;8.00;85.60;;;;;;4143823;28;20061;-75
2022/02/23 10:48:59;;;;;;;11.10;2.57;;;8.00;85.40;;;;;;4144608;28;20029;-67